createdAt,value
2022-09-23T00:00:49.501Z,12.18
2022-09-23T00:03:16.666Z,13.98
2022-09-23T00:05:43.657Z,12.45
2022-09-23T00:08:11.899Z,13.02
2022-09-23T00:10:40.317Z,13.10
2022-09-23T00:13:07.107Z,12.90
2022-09-23T00:15:38.974Z,14.15
2022-09-23T00:18:05.663Z,14.30
2022-09-23T00:20:33.982Z,12.85
2022-09-23T00:23:01.370Z,16.63
2022-09-23T00:25:29.671Z,13.88
2022-09-23T00:27:56.565Z,13.10
2022-09-23T00:30:23.652Z,12.55
2022-09-23T00:32:50.257Z,15.23
2022-09-23T00:35:17.367Z,14.85
2022-09-23T00:37:43.817Z,14.48
2022-09-23T00:40:12.306Z,16.02
2022-09-23T00:42:48.923Z,14.55
2022-09-23T00:45:16.324Z,15.63
2022-09-23T00:47:56.100Z,14.95
2022-09-23T00:50:26.427Z,13.40
2022-09-23T00:52:56.712Z,15.70
2022-09-23T00:55:30.465Z,14.77
2022-09-23T01:00:25.110Z,15.45
2022-09-23T01:02:52.195Z,18.02
2022-09-23T01:05:19.439Z,18.73
2022-09-23T01:07:46.317Z,16.95
2022-09-23T01:10:15.699Z,16.23
2022-09-23T01:13:18.862Z,17.17
2022-09-23T01:15:49.747Z,17.25
2022-09-23T01:18:37.371Z,17.83
2022-09-23T01:21:08.939Z,18.05
2022-09-23T01:24:02.366Z,19.40
2022-09-23T01:27:06.441Z,18.02
2022-09-23T01:29:48.925Z,19.27
2022-09-23T01:32:34.051Z,14.05
2022-09-23T01:35:25.743Z,16.77
2022-09-23T01:38:10.449Z,15.75
2022-09-23T01:40:52.073Z,17.42
2022-09-23T01:43:33.789Z,17.15
2022-09-23T01:46:01.667Z,22.70
2022-09-23T01:48:42.003Z,14.02
2022-09-23T01:51:14.663Z,16.30
2022-09-23T01:53:48.923Z,15.43
2022-09-23T01:56:21.219Z,13.63
2022-09-23T01:59:01.235Z,14.98
2022-09-23T02:01:37.672Z,14.35
2022-09-23T02:04:09.850Z,14.15
2022-09-23T02:06:50.752Z,13.00
2022-09-23T02:09:24.984Z,12.20
2022-09-23T02:11:58.808Z,13.15
2022-09-23T02:14:31.545Z,12.35
2022-09-23T02:17:08.466Z,13.13
2022-09-23T02:19:46.104Z,12.82
2022-09-23T02:22:18.864Z,11.40
2022-09-23T02:24:45.558Z,11.87
2022-09-23T02:27:36.690Z,12.05
2022-09-23T02:30:15.635Z,10.68
2022-09-23T02:32:57.125Z,10.38
2022-09-23T02:35:55.445Z,12.75
2022-09-23T02:38:51.189Z,11.20
2022-09-23T02:41:41.398Z,12.13
2022-09-23T02:44:11.637Z,11.88
2022-09-23T02:46:38.783Z,15.10
2022-09-23T02:49:20.280Z,11.95
2022-09-23T02:51:47.077Z,13.00
2022-09-23T02:54:17.930Z,11.05
2022-09-23T02:56:44.427Z,13.90
2022-09-23T02:59:12.014Z,12.55
2022-09-23T03:01:47.597Z,11.93
2022-09-23T03:04:30.095Z,13.20
2022-09-23T03:07:32.824Z,12.90
2022-09-23T03:09:59.226Z,13.07
2022-09-23T03:12:32.923Z,12.07
2022-09-23T03:17:38.090Z,14.93
2022-09-23T03:20:15.337Z,11.60
2022-09-23T03:22:49.594Z,11.82
2022-09-23T03:25:21.225Z,14.82
2022-09-23T03:27:47.939Z,12.95
2022-09-23T03:30:14.547Z,12.10
2022-09-23T03:32:45.492Z,10.95
2022-09-23T03:35:13.226Z,12.80
2022-09-23T03:37:53.374Z,11.02
2022-09-23T03:40:32.905Z,9.75
2022-09-23T03:43:01.444Z,11.45
2022-09-23T03:45:32.348Z,14.20
2022-09-23T03:47:58.940Z,10.43
2022-09-23T03:50:25.736Z,11.85
2022-09-23T03:52:52.264Z,10.02
2022-09-23T03:55:22.018Z,11.02
2022-09-23T03:57:48.648Z,10.55
2022-09-23T04:00:16.002Z,12.05
2022-09-23T04:02:43.353Z,10.25
2022-09-23T04:05:11.366Z,10.52
2022-09-23T04:07:38.281Z,11.98
2022-09-23T04:10:06.161Z,15.68
2022-09-23T04:12:32.721Z,10.95
2022-09-23T04:14:59.221Z,12.10
2022-09-23T04:17:25.684Z,12.93
2022-09-23T04:19:52.178Z,12.70
2022-09-23T04:22:18.711Z,15.35
2022-09-23T04:24:45.166Z,13.52
2022-09-23T04:27:11.613Z,11.55
2022-09-23T04:29:38.083Z,13.05
2022-09-23T04:32:04.673Z,13.00
2022-09-23T04:34:31.227Z,13.68
2022-09-23T04:36:57.685Z,13.68
2022-09-23T04:39:24.193Z,12.60
2022-09-23T04:41:50.699Z,12.90
2022-09-23T04:44:17.229Z,13.93
2022-09-23T04:46:48.224Z,12.65
2022-09-23T04:49:16.298Z,14.23
2022-09-23T04:51:43.669Z,15.38
2022-09-23T04:54:11.909Z,15.40
2022-09-23T04:56:39.732Z,14.90
2022-09-23T04:59:06.970Z,15.38
2022-09-23T05:01:35.059Z,16.38
2022-09-23T05:04:07.643Z,15.32
2022-09-23T05:06:35.303Z,15.35
2022-09-23T05:09:04.451Z,17.45
2022-09-23T05:11:31.659Z,15.25
2022-09-23T05:13:58.638Z,15.63
2022-09-23T05:16:25.831Z,13.68
2022-09-23T05:18:53.144Z,17.05
2022-09-23T05:21:22.043Z,13.63
2022-09-23T05:23:58.739Z,16.70
2022-09-23T05:26:27.792Z,14.27
2022-09-23T05:28:54.889Z,13.05
2022-09-23T05:31:23.990Z,16.13
2022-09-23T05:33:53.283Z,17.58
2022-09-23T05:36:21.776Z,16.95
2022-09-23T05:38:50.069Z,15.00
2022-09-23T05:41:18.463Z,16.50
2022-09-23T05:43:47.483Z,18.70
2022-09-23T05:46:18.823Z,15.40
2022-09-23T05:48:47.257Z,13.55
2022-09-23T05:51:17.205Z,16.58
2022-09-23T05:53:45.335Z,14.52
2022-09-23T05:56:13.811Z,17.70
2022-09-23T05:58:40.782Z,18.13
2022-09-23T06:01:31.997Z,20.42
2022-09-23T06:03:59.637Z,25.80
2022-09-23T06:06:31.961Z,18.25
2022-09-23T06:09:00.237Z,18.15
2022-09-23T06:11:29.834Z,15.95
2022-09-23T06:14:01.009Z,16.83
2022-09-23T06:16:29.551Z,19.15
2022-09-23T06:18:56.221Z,17.42
2022-09-23T06:21:22.843Z,16.48
2022-09-23T06:23:50.795Z,19.45
2022-09-23T06:26:19.005Z,17.63
2022-09-23T06:28:45.996Z,16.20
2022-09-23T06:31:16.375Z,16.40
2022-09-23T06:33:46.349Z,15.80
2022-09-23T06:36:24.396Z,18.85
2022-09-23T06:39:02.285Z,17.63
2022-09-23T06:41:28.998Z,20.92
2022-09-23T06:43:57.775Z,17.27
2022-09-23T06:46:24.249Z,18.42
2022-09-23T06:48:51.099Z,17.67
2022-09-23T06:51:21.669Z,16.65
2022-09-23T06:53:49.048Z,15.85
2022-09-23T06:56:17.754Z,18.23
2022-09-23T06:58:44.316Z,15.98
2022-09-23T07:01:13.405Z,19.13
2022-09-23T07:03:39.964Z,14.80
2022-09-23T07:06:07.197Z,15.52
2022-09-23T07:08:34.830Z,14.40
2022-09-23T07:11:04.458Z,13.23
2022-09-23T07:13:33.392Z,15.63
2022-09-23T07:16:02.053Z,14.38
2022-09-23T07:18:36.175Z,18.02
2022-09-23T07:21:15.439Z,14.63
2022-09-23T07:23:47.489Z,13.30
2022-09-23T07:26:18.798Z,13.65
2022-09-23T07:28:45.547Z,14.93
2022-09-23T07:31:19.640Z,13.88
2022-09-23T07:33:49.125Z,11.90
2022-09-23T07:36:18.695Z,12.00
2022-09-23T07:38:47.356Z,12.23
2022-09-23T07:41:17.872Z,13.10
2022-09-23T07:43:46.790Z,11.77
2022-09-23T07:46:16.731Z,11.82
2022-09-23T07:48:44.707Z,13.07
2022-09-23T07:51:38.261Z,10.40
2022-09-23T07:54:12.807Z,11.55
2022-09-23T07:56:40.448Z,9.85
2022-09-23T07:59:09.038Z,10.82
2022-09-23T08:01:43.166Z,11.70
2022-09-23T08:04:17.151Z,9.98
2022-09-23T08:06:46.373Z,13.05
2022-09-23T08:09:13.341Z,10.63
2022-09-23T08:11:42.128Z,10.05
2022-09-23T08:14:13.551Z,10.25
2022-09-23T08:16:41.141Z,10.25
2022-09-23T08:19:08.485Z,9.40
2022-09-23T08:21:35.419Z,8.68
2022-09-23T08:24:05.564Z,10.70
2022-09-23T08:26:34.270Z,8.45
2022-09-23T08:29:01.074Z,8.80
2022-09-23T08:31:27.651Z,8.55
2022-09-23T08:33:55.958Z,9.38
2022-09-23T08:36:23.194Z,8.27
2022-09-23T08:38:49.677Z,7.38
2022-09-23T08:42:01.087Z,8.43
2022-09-23T08:44:53.258Z,7.97
2022-09-23T08:47:28.828Z,8.27
2022-09-23T08:50:04.581Z,8.20
2022-09-23T08:52:48.548Z,7.25
2022-09-23T08:55:16.288Z,7.50
2022-09-23T08:58:26.796Z,10.80
2022-09-23T09:01:41.157Z,8.20
2022-09-23T09:04:35.434Z,7.13
2022-09-23T09:07:34.829Z,8.00
2022-09-23T09:09:54.367Z,7.63
2022-09-23T09:12:28.598Z,8.27
2022-09-23T09:15:02.287Z,7.53
2022-09-23T09:17:35.091Z,7.50
2022-09-23T09:20:12.696Z,9.23
2022-09-23T09:22:52.783Z,8.45
2022-09-23T09:25:33.430Z,7.63
2022-09-23T09:28:01.315Z,8.55
2022-09-23T09:30:28.175Z,7.53
2022-09-23T09:33:02.799Z,7.60
2022-09-23T09:35:50.275Z,9.38
2022-09-23T09:38:16.762Z,7.47
2022-09-23T09:40:47.606Z,7.65
2022-09-23T09:43:24.558Z,8.32
2022-09-23T09:46:13.230Z,8.57
2022-09-23T09:48:53.715Z,9.75
2022-09-23T09:51:23.344Z,9.27
2022-09-23T09:53:53.880Z,7.60
2022-09-23T09:56:35.782Z,8.38
2022-09-23T09:59:11.374Z,8.00
2022-09-23T10:01:37.947Z,9.93
2022-09-23T10:04:18.616Z,7.28
2022-09-23T10:07:05.005Z,7.88
2022-09-23T10:09:48.366Z,10.05
2022-09-23T10:12:20.580Z,9.02
2022-09-23T10:14:51.281Z,8.02
2022-09-23T10:17:26.329Z,8.52
2022-09-23T10:20:01.442Z,8.68
2022-09-23T10:22:32.656Z,8.98
2022-09-23T10:25:08.330Z,9.77
2022-09-23T10:27:36.460Z,7.70
2022-09-23T10:30:14.924Z,11.07
2022-09-23T10:32:47.824Z,9.75
2022-09-23T10:35:16.919Z,9.57
2022-09-23T10:37:49.446Z,12.32
2022-09-23T10:41:01.664Z,10.53
2022-09-23T10:44:09.194Z,7.05
2022-09-23T10:46:49.216Z,8.13
2022-09-23T10:49:29.001Z,7.45
2022-09-23T10:52:06.605Z,7.47
2022-09-23T10:54:32.985Z,7.32
2022-09-23T10:57:41.789Z,6.32
2022-09-23T11:00:23.462Z,7.78
2022-09-23T11:03:17.506Z,8.45
2022-09-23T11:08:38.318Z,6.32
2022-09-23T11:11:23.254Z,6.55
2022-09-23T11:14:04.125Z,7.47
2022-09-23T11:16:58.178Z,6.20
2022-09-23T11:19:40.124Z,8.57
2022-09-23T11:22:36.179Z,7.53
2022-09-23T11:28:05.279Z,6.18
2022-09-23T11:30:50.442Z,7.38
2022-09-23T11:33:47.398Z,8.75
2022-09-23T11:36:41.415Z,6.80
2022-09-23T11:39:22.511Z,6.95
2022-09-23T11:41:53.862Z,5.53
2022-09-23T11:44:35.631Z,7.00
2022-09-23T11:47:08.055Z,7.68
2022-09-23T11:49:40.129Z,7.00
2022-09-23T11:52:21.512Z,4.85
2022-09-23T11:55:19.267Z,8.23
2022-09-23T11:57:54.154Z,6.63
2022-09-23T12:00:26.657Z,10.68
2022-09-23T12:03:12.081Z,5.00
2022-09-23T12:05:47.387Z,13.90
2022-09-23T12:08:26.715Z,8.05
2022-09-23T12:11:06.503Z,5.88
2022-09-23T12:13:54.442Z,7.15
2022-09-23T12:16:29.955Z,5.88
2022-09-23T12:19:08.408Z,11.02
2022-09-23T12:21:51.311Z,6.32
2022-09-23T12:24:56.643Z,6.85
2022-09-23T12:27:32.202Z,9.98
2022-09-23T12:30:05.219Z,9.50
2022-09-23T12:32:32.370Z,9.38
2022-09-23T12:35:00.533Z,9.23
2022-09-23T12:37:37.052Z,8.70
2022-09-23T12:40:31.885Z,7.22
2022-09-23T12:43:01.163Z,5.50
2022-09-23T12:45:34.693Z,7.45
2022-09-23T12:48:04.236Z,6.53
2022-09-23T12:51:13.285Z,8.07
2022-09-23T12:53:40.117Z,6.97
2022-09-23T12:56:18.372Z,7.40
2022-09-23T12:58:44.796Z,7.78
2022-09-23T13:01:14.377Z,8.25
2022-09-23T13:04:08.186Z,8.55
2022-09-23T13:06:43.626Z,10.07
2022-09-23T13:09:15.236Z,7.30
2022-09-23T13:11:44.470Z,6.05
2022-09-23T13:14:15.931Z,9.80
2022-09-23T13:16:44.311Z,7.18
2022-09-23T13:19:25.958Z,9.55
2022-09-23T13:22:11.342Z,10.00
2022-09-23T13:24:42.077Z,9.52
2022-09-23T13:27:34.981Z,8.18
2022-09-23T13:30:13.758Z,7.97
2022-09-23T13:33:06.856Z,7.68
2022-09-23T13:35:39.068Z,6.57
2022-09-23T13:38:20.029Z,8.65
2022-09-23T13:40:47.221Z,8.43
2022-09-23T13:43:42.622Z,7.05
2022-09-23T13:46:13.330Z,7.38
2022-09-23T13:48:41.330Z,9.02
2022-09-23T13:51:15.961Z,7.47
2022-09-23T13:53:42.465Z,10.30
2022-09-23T13:56:14.281Z,8.13
2022-09-23T13:58:41.634Z,6.72
2022-09-23T14:01:10.282Z,9.43
2022-09-23T14:03:39.197Z,9.82
2022-09-23T14:06:10.580Z,10.63
2022-09-23T14:08:40.370Z,10.13
2022-09-23T14:11:07.046Z,8.98
2022-09-23T14:13:42.460Z,8.63
2022-09-23T14:16:12.722Z,6.32
2022-09-23T14:18:42.950Z,8.27
2022-09-23T14:21:29.137Z,7.75
2022-09-23T14:23:56.551Z,9.60
2022-09-23T14:26:24.760Z,6.15
2022-09-23T14:28:52.204Z,8.50
2022-09-23T14:31:18.938Z,8.18
2022-09-23T14:33:46.918Z,6.90
2022-09-23T14:36:35.868Z,7.63
2022-09-23T14:39:05.178Z,7.15
2022-09-23T14:41:37.077Z,7.97
2022-09-23T14:44:05.040Z,6.90
2022-09-23T14:46:35.001Z,6.80
2022-09-23T14:49:06.534Z,8.25
2022-09-23T14:51:42.545Z,9.10
2022-09-23T14:54:40.227Z,9.80
2022-09-23T14:57:26.519Z,15.50
2022-09-23T15:00:08.253Z,8.07
2022-09-23T15:02:36.587Z,7.13
2022-09-23T15:05:14.604Z,8.20
2022-09-23T15:07:42.452Z,12.40
2022-09-23T15:10:27.644Z,7.50
2022-09-23T15:13:02.538Z,10.93
2022-09-23T15:15:29.204Z,6.93
2022-09-23T15:17:56.054Z,10.23
2022-09-23T15:20:26.808Z,7.75
2022-09-23T15:22:55.459Z,7.45
2022-09-23T15:25:30.233Z,8.80
2022-09-23T15:28:17.428Z,9.52
2022-09-23T15:30:44.107Z,10.25
2022-09-23T15:33:13.227Z,10.25
2022-09-23T15:35:45.254Z,10.25
2022-09-23T15:38:12.272Z,9.73
2022-09-23T15:40:39.385Z,7.05
2022-09-23T15:43:16.693Z,9.25
2022-09-23T15:45:48.546Z,10.40
2022-09-23T15:48:17.614Z,7.20
2022-09-23T15:50:47.053Z,6.93
2022-09-23T15:53:21.853Z,7.70
2022-09-23T15:55:51.545Z,9.73
2022-09-23T15:58:23.522Z,14.20
2022-09-23T16:00:55.997Z,13.23
2022-09-23T16:03:30.437Z,6.85
2022-09-23T16:06:01.165Z,8.45
2022-09-23T16:08:28.695Z,16.50
2022-09-23T16:10:55.375Z,13.98
2022-09-23T16:13:21.959Z,10.90
2022-09-23T16:15:48.567Z,10.38
2022-09-23T16:18:15.066Z,11.98
2022-09-23T16:20:45.958Z,12.80
2022-09-23T16:23:34.444Z,8.65
2022-09-23T16:26:15.229Z,8.70
2022-09-23T16:28:43.118Z,8.75
2022-09-23T16:31:11.857Z,9.73
2022-09-23T16:33:40.660Z,10.77
2022-09-23T16:36:14.120Z,8.35
2022-09-23T16:41:07.636Z,8.15
2022-09-23T16:43:39.533Z,10.70
2022-09-23T16:46:14.753Z,10.43
2022-09-23T16:48:43.223Z,10.73
2022-09-23T16:51:26.590Z,9.60
2022-09-23T16:53:54.672Z,12.75
2022-09-23T16:56:28.173Z,12.98
2022-09-23T16:58:55.954Z,11.70
2022-09-23T17:01:44.107Z,11.82
2022-09-23T17:04:11.975Z,13.82
2022-09-23T17:06:52.191Z,15.20
2022-09-23T17:09:21.059Z,10.20
2022-09-23T17:12:04.262Z,11.55
2022-09-23T17:14:34.562Z,10.55
2022-09-23T17:17:01.234Z,11.30
2022-09-23T17:19:28.178Z,14.48
2022-09-23T17:21:54.659Z,11.70
2022-09-23T17:24:21.257Z,14.35
2022-09-23T17:26:52.611Z,15.57
2022-09-23T17:29:19.623Z,18.33
2022-09-23T17:31:46.597Z,15.77
2022-09-23T17:34:13.218Z,13.57
2022-09-23T17:36:40.485Z,17.60
2022-09-23T17:39:07.180Z,16.80
2022-09-23T17:41:33.841Z,14.05
2022-09-23T17:44:00.560Z,14.23
2022-09-23T17:46:28.821Z,15.60
2022-09-23T17:48:55.591Z,12.13
2022-09-23T17:51:23.006Z,13.55
2022-09-23T17:53:49.685Z,9.80
2022-09-23T17:56:20.583Z,9.98
2022-09-23T17:58:48.793Z,11.10
2022-09-23T18:01:20.657Z,13.77
2022-09-23T18:03:47.600Z,10.63
2022-09-23T18:06:17.211Z,17.10
2022-09-23T18:08:45.757Z,13.05
2022-09-23T18:11:16.042Z,15.43
2022-09-23T18:13:47.714Z,15.23
2022-09-23T18:16:14.372Z,14.23
2022-09-23T18:18:40.883Z,14.48
2022-09-23T18:21:07.715Z,15.00
2022-09-23T18:23:34.149Z,14.25
2022-09-23T18:26:00.596Z,15.00
2022-09-23T18:28:34.032Z,14.30
2022-09-23T18:31:01.491Z,14.82
2022-09-23T18:33:28.016Z,29.05
2022-09-23T18:35:54.473Z,25.23
2022-09-23T18:38:21.091Z,29.13
2022-09-23T18:40:56.131Z,22.35
2022-09-23T18:43:25.852Z,20.73
2022-09-23T18:46:03.961Z,22.42
2022-09-23T18:48:50.240Z,24.25
2022-09-23T18:51:18.407Z,24.90
2022-09-23T18:53:47.884Z,23.27
2022-09-23T18:56:19.856Z,20.23
2022-09-23T18:58:48.731Z,24.07
2022-09-23T19:01:16.757Z,20.60
2022-09-23T19:03:43.706Z,18.90
2022-09-23T19:06:13.359Z,17.30
2022-09-23T19:08:40.819Z,19.95
2022-09-23T19:11:10.935Z,20.85
2022-09-23T19:13:37.448Z,18.08
2022-09-23T19:16:14.650Z,20.00
2022-09-23T19:18:42.310Z,17.85
2022-09-23T19:21:12.675Z,19.98
2022-09-23T19:23:40.541Z,21.23
2022-09-23T19:26:12.267Z,21.20
2022-09-23T19:28:39.350Z,21.25
2022-09-23T19:31:15.075Z,20.92
2022-09-23T19:33:41.854Z,19.10
2022-09-23T19:36:09.506Z,18.23
2022-09-23T19:38:38.342Z,18.73
2022-09-23T19:41:07.979Z,19.50
2022-09-23T19:43:37.805Z,19.48
2022-09-23T19:46:06.690Z,19.77
2022-09-23T19:48:34.176Z,20.48
2022-09-23T19:51:02.562Z,18.20
2022-09-23T19:53:29.025Z,19.55
2022-09-23T19:55:58.491Z,17.63
2022-09-23T19:58:25.609Z,17.75
2022-09-23T20:00:52.464Z,17.35
2022-09-23T20:03:19.105Z,18.23
2022-09-23T20:05:54.368Z,18.17
2022-09-23T20:08:21.145Z,17.40
2022-09-23T20:10:48.159Z,17.40
2022-09-23T20:13:14.967Z,18.48
2022-09-23T20:15:42.684Z,24.30
2022-09-23T20:18:10.142Z,18.45
2022-09-23T20:20:37.039Z,14.98
2022-09-23T20:23:03.518Z,16.00
2022-09-23T20:25:50.007Z,16.25
2022-09-23T20:28:16.528Z,16.25
2022-09-23T20:30:43.954Z,16.35
2022-09-23T20:33:14.567Z,15.40
2022-09-23T20:35:43.804Z,15.80
2022-09-23T20:38:10.462Z,12.65
2022-09-23T20:40:38.604Z,15.23
2022-09-23T20:43:05.311Z,17.35
2022-09-23T20:45:31.999Z,15.52
2022-09-23T20:48:00.159Z,14.32
2022-09-23T20:50:26.710Z,14.80
2022-09-23T20:52:53.230Z,16.00
2022-09-23T20:55:19.711Z,17.30
2022-09-23T20:57:48.426Z,22.08
2022-09-23T21:00:15.556Z,17.83
2022-09-23T21:02:44.438Z,21.55
2022-09-23T21:05:10.898Z,19.58
2022-09-23T21:07:37.514Z,19.95
2022-09-23T21:10:07.296Z,21.20
2022-09-23T21:12:35.135Z,19.77
2022-09-23T21:15:02.036Z,20.98
2022-09-23T21:17:28.495Z,19.92
2022-09-23T21:19:55.028Z,22.85
2022-09-23T21:22:21.467Z,22.60
2022-09-23T21:25:31.603Z,22.38
2022-09-23T21:27:37.136Z,21.63
2022-09-23T21:30:04.628Z,20.73
2022-09-23T21:32:31.253Z,25.08
2022-09-23T21:34:57.739Z,21.88
2022-09-23T21:37:25.433Z,22.92
2022-09-23T21:40:10.285Z,22.40
2022-09-23T21:42:38.256Z,23.77
2022-09-23T21:45:05.244Z,20.50
2022-09-23T21:47:32.395Z,21.77
2022-09-23T21:49:58.909Z,21.88
2022-09-23T21:52:25.359Z,21.73
2022-09-23T21:54:52.252Z,29.55
2022-09-23T21:57:18.694Z,27.35
2022-09-23T21:59:45.157Z,24.70
2022-09-23T22:02:11.631Z,30.80
2022-09-23T22:04:38.149Z,30.00
2022-09-23T22:07:04.811Z,31.83
2022-09-23T22:09:31.303Z,30.23
2022-09-23T22:12:09.594Z,26.42
2022-09-23T22:14:36.314Z,26.02
2022-09-23T22:17:04.327Z,25.38
2022-09-23T22:19:34.839Z,24.27
2022-09-23T22:22:05.749Z,20.70
2022-09-23T22:24:32.228Z,20.65
2022-09-23T22:26:58.718Z,22.05
2022-09-23T22:29:43.731Z,21.05
2022-09-23T22:32:30.063Z,21.20
2022-09-23T22:34:56.758Z,24.88
2022-09-23T22:37:34.037Z,17.67
2022-09-23T22:40:02.016Z,29.38
2022-09-23T22:42:29.149Z,27.58
2022-09-23T22:44:55.593Z,28.80
2022-09-23T22:47:22.263Z,26.75
2022-09-23T22:49:48.895Z,32.15
2022-09-23T22:52:20.854Z,35.65
2022-09-23T22:54:47.370Z,29.00
2022-09-23T22:57:14.652Z,30.63
2022-09-23T22:59:47.854Z,28.23
2022-09-23T23:02:16.225Z,23.85
2022-09-23T23:04:45.170Z,22.30
2022-09-23T23:07:16.327Z,25.17
2022-09-23T23:09:42.853Z,25.75
2022-09-23T23:12:09.343Z,20.27
2022-09-23T23:14:36.334Z,20.23
2022-09-23T23:17:07.200Z,22.10
2022-09-23T23:19:35.117Z,24.55
2022-09-23T23:22:01.719Z,17.55
2022-09-23T23:24:28.530Z,16.83
2022-09-23T23:26:55.420Z,15.40
2022-09-23T23:29:22.743Z,20.20
2022-09-23T23:31:49.697Z,15.23
2022-09-23T23:34:18.758Z,17.90
2022-09-23T23:36:45.966Z,17.27
2022-09-23T23:39:13.566Z,17.55
2022-09-23T23:41:41.490Z,15.48
2022-09-23T23:44:08.790Z,17.23
2022-09-23T23:46:37.091Z,17.50
2022-09-23T23:49:04.650Z,16.33
2022-09-23T23:51:32.146Z,17.25
2022-09-23T23:53:59.498Z,18.52
2022-09-23T23:56:26.771Z,21.02
2022-09-23T23:58:55.348Z,19.45
